sensor_id;sensor_type;location;lat;lon;timestamp;P1;durP1;ratioP1;P2;durP2;ratioP2
55268;SDS011;41131;42.990;21.954;2024-01-07T00:01:11;82.65;;;58.72;;
55268;SDS011;41131;42.990;21.954;2024-01-07T00:03:38;100.45;;;70.60;;
55268;SDS011;41131;42.990;21.954;2024-01-07T00:06:06;108.50;;;80.20;;
55268;SDS011;41131;42.990;21.954;2024-01-07T00:08:32;99.22;;;69.90;;
55268;SDS011;41131;42.990;21.954;2024-01-07T00:10:58;89.47;;;65.93;;
55268;SDS011;41131;42.990;21.954;2024-01-07T00:13:24;102.32;;;72.88;;
55268;SDS011;41131;42.990;21.954;2024-01-07T00:15:50;93.88;;;68.25;;
55268;SDS011;41131;42.990;21.954;2024-01-07T00:18:18;89.70;;;67.15;;
55268;SDS011;41131;42.990;21.954;2024-01-07T00:20:45;95.30;;;69.57;;
55268;SDS011;41131;42.990;21.954;2024-01-07T00:23:11;94.03;;;68.75;;
55268;SDS011;41131;42.990;21.954;2024-01-07T00:25:37;98.53;;;69.03;;
55268;SDS011;41131;42.990;21.954;2024-01-07T00:28:03;136.82;;;100.85;;
55268;SDS011;41131;42.990;21.954;2024-01-07T00:30:29;141.90;;;97.63;;
55268;SDS011;41131;42.990;21.954;2024-01-07T00:32:55;138.13;;;98.40;;
55268;SDS011;41131;42.990;21.954;2024-01-07T00:35:21;149.10;;;108.75;;
55268;SDS011;41131;42.990;21.954;2024-01-07T00:37:47;167.02;;;118.47;;
55268;SDS011;41131;42.990;21.954;2024-01-07T00:40:13;178.82;;;121.53;;
55268;SDS011;41131;42.990;21.954;2024-01-07T00:42:39;173.52;;;123.13;;
55268;SDS011;41131;42.990;21.954;2024-01-07T00:45:06;179.85;;;123.78;;
55268;SDS011;41131;42.990;21.954;2024-01-07T00:47:32;161.02;;;114.22;;
55268;SDS011;41131;42.990;21.954;2024-01-07T00:49:58;162.82;;;115.25;;
55268;SDS011;41131;42.990;21.954;2024-01-07T00:52:24;155.15;;;108.05;;
55268;SDS011;41131;42.990;21.954;2024-01-07T00:54:50;156.05;;;112.05;;
55268;SDS011;41131;42.990;21.954;2024-01-07T00:57:16;156.05;;;116.95;;
55268;SDS011;41131;42.990;21.954;2024-01-07T00:59:43;163.32;;;117.65;;
55268;SDS011;41131;42.990;21.954;2024-01-07T01:02:09;180.88;;;121.88;;
55268;SDS011;41131;42.990;21.954;2024-01-07T01:04:38;163.18;;;117.75;;
55268;SDS011;41131;42.990;21.954;2024-01-07T01:07:05;160.18;;;117.22;;
55268;SDS011;41131;42.990;21.954;2024-01-07T01:09:32;170.55;;;118.65;;
55268;SDS011;41131;42.990;21.954;2024-01-07T01:11:58;179.70;;;127.07;;
55268;SDS011;41131;42.990;21.954;2024-01-07T01:14:24;163.85;;;112.55;;
55268;SDS011;41131;42.990;21.954;2024-01-07T01:16:50;146.02;;;107.70;;
55268;SDS011;41131;42.990;21.954;2024-01-07T01:19:17;144.55;;;103.70;;
55268;SDS011;41131;42.990;21.954;2024-01-07T01:21:43;121.90;;;88.43;;
55268;SDS011;41131;42.990;21.954;2024-01-07T01:24:09;108.72;;;78.03;;
55268;SDS011;41131;42.990;21.954;2024-01-07T01:26:35;103.03;;;74.25;;
55268;SDS011;41131;42.990;21.954;2024-01-07T01:29:01;91.95;;;66.30;;
55268;SDS011;41131;42.990;21.954;2024-01-07T01:31:27;88.53;;;62.63;;
55268;SDS011;41131;42.990;21.954;2024-01-07T01:33:53;81.60;;;58.10;;
55268;SDS011;41131;42.990;21.954;2024-01-07T01:36:20;85.47;;;61.17;;
55268;SDS011;41131;42.990;21.954;2024-01-07T01:38:46;82.10;;;57.10;;
55268;SDS011;41131;42.990;21.954;2024-01-07T01:41:13;75.28;;;53.88;;
55268;SDS011;41131;42.990;21.954;2024-01-07T01:43:39;63.60;;;47.88;;
55268;SDS011;41131;42.990;21.954;2024-01-07T01:46:06;72.85;;;52.50;;
55268;SDS011;41131;42.990;21.954;2024-01-07T01:48:32;68.28;;;49.33;;
55268;SDS011;41131;42.990;21.954;2024-01-07T01:50:59;70.28;;;48.80;;
55268;SDS011;41131;42.990;21.954;2024-01-07T01:53:25;73.68;;;50.35;;
55268;SDS011;41131;42.990;21.954;2024-01-07T01:55:52;75.63;;;50.70;;
55268;SDS011;41131;42.990;21.954;2024-01-07T01:58:19;63.80;;;46.72;;
55268;SDS011;41131;42.990;21.954;2024-01-07T02:00:45;64.07;;;46.33;;
55268;SDS011;41131;42.990;21.954;2024-01-07T02:03:11;160.07;;;87.43;;
55268;SDS011;41131;42.990;21.954;2024-01-07T02:05:37;94.80;;;59.53;;
55268;SDS011;41131;42.990;21.954;2024-01-07T02:08:03;72.80;;;45.83;;
55268;SDS011;41131;42.990;21.954;2024-01-07T02:10:30;116.25;;;61.92;;
55268;SDS011;41131;42.990;21.954;2024-01-07T02:12:59;70.70;;;45.22;;
55268;SDS011;41131;42.990;21.954;2024-01-07T02:15:26;56.42;;;42.97;;
55268;SDS011;41131;42.990;21.954;2024-01-07T02:17:52;79.88;;;49.40;;
55268;SDS011;41131;42.990;21.954;2024-01-07T02:20:18;65.93;;;44.33;;
55268;SDS011;41131;42.990;21.954;2024-01-07T02:22:44;56.08;;;39.47;;
55268;SDS011;41131;42.990;21.954;2024-01-07T02:25:10;56.47;;;40.17;;
55268;SDS011;41131;42.990;21.954;2024-01-07T02:27:36;58.40;;;43.17;;
55268;SDS011;41131;42.990;21.954;2024-01-07T02:30:02;69.47;;;52.40;;
55268;SDS011;41131;42.990;21.954;2024-01-07T02:32:29;71.88;;;53.90;;
55268;SDS011;41131;42.990;21.954;2024-01-07T02:34:59;68.05;;;47.03;;
55268;SDS011;41131;42.990;21.954;2024-01-07T02:37:25;60.38;;;43.92;;
55268;SDS011;41131;42.990;21.954;2024-01-07T02:39:51;58.20;;;40.38;;
55268;SDS011;41131;42.990;21.954;2024-01-07T02:42:17;54.03;;;37.83;;
55268;SDS011;41131;42.990;21.954;2024-01-07T02:44:43;47.95;;;34.42;;
55268;SDS011;41131;42.990;21.954;2024-01-07T02:47:09;46.78;;;33.58;;
55268;SDS011;41131;42.990;21.954;2024-01-07T02:49:36;42.67;;;32.60;;
55268;SDS011;41131;42.990;21.954;2024-01-07T02:52:02;49.40;;;34.28;;
55268;SDS011;41131;42.990;21.954;2024-01-07T02:54:28;51.88;;;34.42;;
55268;SDS011;41131;42.990;21.954;2024-01-07T02:56:54;82.15;;;52.88;;
55268;SDS011;41131;42.990;21.954;2024-01-07T02:59:20;70.53;;;46.83;;
55268;SDS011;41131;42.990;21.954;2024-01-07T03:01:46;60.90;;;42.83;;
55268;SDS011;41131;42.990;21.954;2024-01-07T03:04:13;62.72;;;42.33;;
55268;SDS011;41131;42.990;21.954;2024-01-07T03:06:39;72.78;;;46.83;;
55268;SDS011;41131;42.990;21.954;2024-01-07T03:09:05;58.45;;;41.28;;
55268;SDS011;41131;42.990;21.954;2024-01-07T03:11:32;51.70;;;35.65;;
55268;SDS011;41131;42.990;21.954;2024-01-07T03:13:58;48.85;;;34.78;;
55268;SDS011;41131;42.990;21.954;2024-01-07T03:16:24;55.00;;;37.75;;
55268;SDS011;41131;42.990;21.954;2024-01-07T03:18:51;49.58;;;34.20;;
55268;SDS011;41131;42.990;21.954;2024-01-07T03:21:18;47.55;;;32.55;;
55268;SDS011;41131;42.990;21.954;2024-01-07T03:23:44;50.22;;;35.45;;
55268;SDS011;41131;42.990;21.954;2024-01-07T03:26:11;48.05;;;31.98;;
55268;SDS011;41131;42.990;21.954;2024-01-07T03:28:37;38.33;;;27.80;;
55268;SDS011;41131;42.990;21.954;2024-01-07T03:31:04;43.97;;;27.88;;
55268;SDS011;41131;42.990;21.954;2024-01-07T03:33:30;42.13;;;27.77;;
55268;SDS011;41131;42.990;21.954;2024-01-07T03:35:56;45.80;;;28.77;;
55268;SDS011;41131;42.990;21.954;2024-01-07T03:38:23;40.75;;;29.73;;
55268;SDS011;41131;42.990;21.954;2024-01-07T03:40:49;37.42;;;26.63;;
55268;SDS011;41131;42.990;21.954;2024-01-07T03:43:15;44.85;;;28.23;;
55268;SDS011;41131;42.990;21.954;2024-01-07T03:45:41;42.05;;;27.08;;
55268;SDS011;41131;42.990;21.954;2024-01-07T03:48:08;39.80;;;26.85;;
55268;SDS011;41131;42.990;21.954;2024-01-07T03:50:34;37.95;;;26.65;;
55268;SDS011;41131;42.990;21.954;2024-01-07T03:53:01;38.95;;;25.70;;
55268;SDS011;41131;42.990;21.954;2024-01-07T03:55:27;38.17;;;26.27;;
55268;SDS011;41131;42.990;21.954;2024-01-07T03:57:53;38.83;;;26.50;;
55268;SDS011;41131;42.990;21.954;2024-01-07T04:00:19;42.25;;;27.27;;
55268;SDS011;41131;42.990;21.954;2024-01-07T04:02:45;56.83;;;34.13;;
55268;SDS011;41131;42.990;21.954;2024-01-07T04:05:11;47.90;;;31.52;;
55268;SDS011;41131;42.990;21.954;2024-01-07T04:07:40;45.38;;;28.42;;
55268;SDS011;41131;42.990;21.954;2024-01-07T04:10:06;48.53;;;33.05;;
55268;SDS011;41131;42.990;21.954;2024-01-07T04:12:32;84.03;;;54.60;;
55268;SDS011;41131;42.990;21.954;2024-01-07T04:14:58;66.50;;;42.67;;
55268;SDS011;41131;42.990;21.954;2024-01-07T04:17:24;64.53;;;43.33;;
55268;SDS011;41131;42.990;21.954;2024-01-07T04:19:52;52.08;;;34.60;;
55268;SDS011;41131;42.990;21.954;2024-01-07T04:22:18;64.75;;;42.25;;
55268;SDS011;41131;42.990;21.954;2024-01-07T04:24:44;65.88;;;45.00;;
55268;SDS011;41131;42.990;21.954;2024-01-07T04:27:10;56.97;;;38.22;;
55268;SDS011;41131;42.990;21.954;2024-01-07T04:29:36;55.53;;;38.40;;
55268;SDS011;41131;42.990;21.954;2024-01-07T04:32:02;136.25;;;59.63;;
55268;SDS011;41131;42.990;21.954;2024-01-07T04:34:28;189.20;;;80.20;;
55268;SDS011;41131;42.990;21.954;2024-01-07T04:36:55;161.50;;;71.35;;
55268;SDS011;41131;42.990;21.954;2024-01-07T04:39:21;105.05;;;55.13;;
55268;SDS011;41131;42.990;21.954;2024-01-07T04:41:47;135.75;;;66.07;;
55268;SDS011;41131;42.990;21.954;2024-01-07T04:44:13;99.55;;;55.17;;
55268;SDS011;41131;42.990;21.954;2024-01-07T04:46:39;81.95;;;47.53;;
55268;SDS011;41131;42.990;21.954;2024-01-07T04:49:06;66.18;;;42.15;;
55268;SDS011;41131;42.990;21.954;2024-01-07T04:51:32;65.30;;;43.33;;
55268;SDS011;41131;42.990;21.954;2024-01-07T04:53:59;88.70;;;51.58;;
55268;SDS011;41131;42.990;21.954;2024-01-07T04:56:25;85.05;;;54.05;;
55268;SDS011;41131;42.990;21.954;2024-01-07T04:58:51;95.65;;;60.40;;
55268;SDS011;41131;42.990;21.954;2024-01-07T05:01:17;89.38;;;55.30;;
55268;SDS011;41131;42.990;21.954;2024-01-07T05:03:43;80.97;;;54.28;;
55268;SDS011;41131;42.990;21.954;2024-01-07T05:06:09;83.50;;;55.42;;
55268;SDS011;41131;42.990;21.954;2024-01-07T05:08:36;80.70;;;53.20;;
55268;SDS011;41131;42.990;21.954;2024-01-07T05:11:03;61.63;;;41.20;;
55268;SDS011;41131;42.990;21.954;2024-01-07T05:13:30;68.90;;;46.72;;
55268;SDS011;41131;42.990;21.954;2024-01-07T05:15:56;69.13;;;46.45;;
55268;SDS011;41131;42.990;21.954;2024-01-07T05:18:22;65.93;;;42.33;;
55268;SDS011;41131;42.990;21.954;2024-01-07T05:20:48;50.55;;;37.13;;
55268;SDS011;41131;42.990;21.954;2024-01-07T05:23:15;51.92;;;37.88;;
55268;SDS011;41131;42.990;21.954;2024-01-07T05:25:44;52.50;;;37.28;;
55268;SDS011;41131;42.990;21.954;2024-01-07T05:28:13;54.85;;;39.30;;
55268;SDS011;41131;42.990;21.954;2024-01-07T05:30:40;59.22;;;41.28;;
55268;SDS011;41131;42.990;21.954;2024-01-07T05:33:07;58.83;;;42.20;;
55268;SDS011;41131;42.990;21.954;2024-01-07T05:35:33;58.47;;;41.63;;
55268;SDS011;41131;42.990;21.954;2024-01-07T05:37:59;53.33;;;40.28;;
55268;SDS011;41131;42.990;21.954;2024-01-07T05:40:25;60.22;;;43.38;;
55268;SDS011;41131;42.990;21.954;2024-01-07T05:42:51;55.58;;;41.42;;
55268;SDS011;41131;42.990;21.954;2024-01-07T05:45:17;65.25;;;47.05;;
55268;SDS011;41131;42.990;21.954;2024-01-07T05:47:44;63.17;;;47.15;;
55268;SDS011;41131;42.990;21.954;2024-01-07T05:50:10;62.33;;;46.65;;
55268;SDS011;41131;42.990;21.954;2024-01-07T05:52:36;62.75;;;46.22;;
55268;SDS011;41131;42.990;21.954;2024-01-07T05:55:02;60.78;;;46.60;;
55268;SDS011;41131;42.990;21.954;2024-01-07T05:57:29;81.28;;;56.75;;
55268;SDS011;41131;42.990;21.954;2024-01-07T05:59:55;83.63;;;58.28;;
55268;SDS011;41131;42.990;21.954;2024-01-07T06:02:21;103.65;;;67.93;;
55268;SDS011;41131;42.990;21.954;2024-01-07T06:04:50;88.15;;;64.18;;
55268;SDS011;41131;42.990;21.954;2024-01-07T06:07:16;77.47;;;59.38;;
55268;SDS011;41131;42.990;21.954;2024-01-07T06:09:42;220.98;;;139.88;;
55268;SDS011;41131;42.990;21.954;2024-01-07T06:12:08;292.98;;;182.05;;
55268;SDS011;41131;42.990;21.954;2024-01-07T06:14:34;176.60;;;115.75;;
55268;SDS011;41131;42.990;21.954;2024-01-07T06:17:01;177.43;;;116.78;;
55268;SDS011;41131;42.990;21.954;2024-01-07T06:19:27;142.02;;;97.20;;
55268;SDS011;41131;42.990;21.954;2024-01-07T06:21:53;128.63;;;87.45;;
55268;SDS011;41131;42.990;21.954;2024-01-07T06:24:19;114.53;;;80.35;;
55268;SDS011;41131;42.990;21.954;2024-01-07T06:26:45;126.32;;;87.75;;
55268;SDS011;41131;42.990;21.954;2024-01-07T06:29:11;113.80;;;79.25;;
55268;SDS011;41131;42.990;21.954;2024-01-07T06:31:42;109.05;;;80.90;;
55268;SDS011;41131;42.990;21.954;2024-01-07T06:34:09;126.45;;;88.93;;
55268;SDS011;41131;42.990;21.954;2024-01-07T06:36:38;123.75;;;83.68;;
55268;SDS011;41131;42.990;21.954;2024-01-07T06:39:05;124.85;;;89.28;;
55268;SDS011;41131;42.990;21.954;2024-01-07T06:41:33;124.80;;;89.90;;
55268;SDS011;41131;42.990;21.954;2024-01-07T06:43:59;124.07;;;87.40;;
55268;SDS011;41131;42.990;21.954;2024-01-07T06:46:25;172.02;;;116.75;;
55268;SDS011;41131;42.990;21.954;2024-01-07T06:48:51;634.90;;;414.45;;
55268;SDS011;41131;42.990;21.954;2024-01-07T06:51:17;518.78;;;342.27;;
55268;SDS011;41131;42.990;21.954;2024-01-07T06:53:43;354.70;;;225.18;;
55268;SDS011;41131;42.990;21.954;2024-01-07T06:56:09;284.77;;;188.18;;
55268;SDS011;41131;42.990;21.954;2024-01-07T06:58:35;247.40;;;172.48;;
55268;SDS011;41131;42.990;21.954;2024-01-07T07:01:01;175.00;;;124.65;;
55268;SDS011;41131;42.990;21.954;2024-01-07T07:03:28;150.55;;;109.97;;
55268;SDS011;41131;42.990;21.954;2024-01-07T07:05:54;145.77;;;103.97;;
55268;SDS011;41131;42.990;21.954;2024-01-07T07:08:20;132.00;;;94.60;;
55268;SDS011;41131;42.990;21.954;2024-01-07T07:10:46;131.07;;;95.00;;
55268;SDS011;41131;42.990;21.954;2024-01-07T07:13:12;123.80;;;92.75;;
55268;SDS011;41131;42.990;21.954;2024-01-07T07:15:39;184.60;;;132.05;;
55268;SDS011;41131;42.990;21.954;2024-01-07T07:18:05;174.25;;;126.55;;
55268;SDS011;41131;42.990;21.954;2024-01-07T07:20:31;145.43;;;107.85;;
55268;SDS011;41131;42.990;21.954;2024-01-07T07:22:57;177.38;;;134.20;;
55268;SDS011;41131;42.990;21.954;2024-01-07T07:25:23;148.35;;;108.05;;
55268;SDS011;41131;42.990;21.954;2024-01-07T07:27:49;155.60;;;114.43;;
55268;SDS011;41131;42.990;21.954;2024-01-07T07:30:15;194.90;;;157.63;;
55268;SDS011;41131;42.990;21.954;2024-01-07T07:32:41;224.20;;;168.18;;
55268;SDS011;41131;42.990;21.954;2024-01-07T07:35:07;181.70;;;123.18;;
55268;SDS011;41131;42.990;21.954;2024-01-07T07:37:34;261.23;;;194.75;;
55268;SDS011;41131;42.990;21.954;2024-01-07T07:40:00;190.57;;;132.55;;
55268;SDS011;41131;42.990;21.954;2024-01-07T07:42:26;152.70;;;115.35;;
55268;SDS011;41131;42.990;21.954;2024-01-07T07:44:52;158.68;;;121.85;;
55268;SDS011;41131;42.990;21.954;2024-01-07T07:47:18;203.63;;;140.68;;
55268;SDS011;41131;42.990;21.954;2024-01-07T07:49:45;186.63;;;136.38;;
55268;SDS011;41131;42.990;21.954;2024-01-07T07:52:11;175.35;;;128.55;;
55268;SDS011;41131;42.990;21.954;2024-01-07T07:54:39;155.13;;;110.53;;
55268;SDS011;41131;42.990;21.954;2024-01-07T07:57:05;140.82;;;106.25;;
55268;SDS011;41131;42.990;21.954;2024-01-07T07:59:31;161.25;;;117.50;;
55268;SDS011;41131;42.990;21.954;2024-01-07T08:01:57;144.88;;;109.63;;
55268;SDS011;41131;42.990;21.954;2024-01-07T08:04:24;210.57;;;150.30;;
55268;SDS011;41131;42.990;21.954;2024-01-07T08:06:51;214.63;;;152.00;;
55268;SDS011;41131;42.990;21.954;2024-01-07T08:09:17;221.18;;;163.38;;
55268;SDS011;41131;42.990;21.954;2024-01-07T08:11:44;178.27;;;132.65;;
55268;SDS011;41131;42.990;21.954;2024-01-07T08:14:10;148.25;;;112.03;;
55268;SDS011;41131;42.990;21.954;2024-01-07T08:16:36;216.77;;;163.57;;
55268;SDS011;41131;42.990;21.954;2024-01-07T08:19:02;248.55;;;187.15;;
55268;SDS011;41131;42.990;21.954;2024-01-07T08:21:28;245.68;;;187.48;;
55268;SDS011;41131;42.990;21.954;2024-01-07T08:23:54;235.75;;;174.77;;
55268;SDS011;41131;42.990;21.954;2024-01-07T08:26:20;169.85;;;131.88;;
55268;SDS011;41131;42.990;21.954;2024-01-07T08:28:48;244.27;;;164.15;;
55268;SDS011;41131;42.990;21.954;2024-01-07T08:31:14;426.63;;;252.10;;
55268;SDS011;41131;42.990;21.954;2024-01-07T08:33:40;373.77;;;236.35;;
55268;SDS011;41131;42.990;21.954;2024-01-07T08:36:06;199.05;;;142.35;;
55268;SDS011;41131;42.990;21.954;2024-01-07T08:38:32;295.20;;;192.32;;
55268;SDS011;41131;42.990;21.954;2024-01-07T08:40:59;234.60;;;164.50;;
55268;SDS011;41131;42.990;21.954;2024-01-07T08:43:25;263.88;;;177.07;;
55268;SDS011;41131;42.990;21.954;2024-01-07T08:45:51;234.95;;;166.48;;
55268;SDS011;41131;42.990;21.954;2024-01-07T08:48:17;226.20;;;166.15;;
55268;SDS011;41131;42.990;21.954;2024-01-07T08:50:43;289.52;;;207.85;;
55268;SDS011;41131;42.990;21.954;2024-01-07T08:53:11;236.93;;;180.30;;
55268;SDS011;41131;42.990;21.954;2024-01-07T08:55:37;230.45;;;186.55;;
55268;SDS011;41131;42.990;21.954;2024-01-07T08:58:03;232.07;;;180.25;;
55268;SDS011;41131;42.990;21.954;2024-01-07T09:00:31;178.90;;;139.23;;
55268;SDS011;41131;42.990;21.954;2024-01-07T09:02:57;167.38;;;134.27;;
55268;SDS011;41131;42.990;21.954;2024-01-07T09:05:23;154.30;;;122.65;;
55268;SDS011;41131;42.990;21.954;2024-01-07T09:07:49;155.30;;;127.00;;
55268;SDS011;41131;42.990;21.954;2024-01-07T09:10:16;175.57;;;137.85;;
55268;SDS011;41131;42.990;21.954;2024-01-07T09:12:44;189.80;;;150.13;;
55268;SDS011;41131;42.990;21.954;2024-01-07T09:15:11;238.18;;;196.10;;
55268;SDS011;41131;42.990;21.954;2024-01-07T09:17:37;253.60;;;208.48;;
55268;SDS011;41131;42.990;21.954;2024-01-07T09:20:03;266.80;;;225.43;;
55268;SDS011;41131;42.990;21.954;2024-01-07T09:22:32;260.63;;;219.88;;
55268;SDS011;41131;42.990;21.954;2024-01-07T09:24:59;248.32;;;206.35;;
55268;SDS011;41131;42.990;21.954;2024-01-07T09:27:25;251.43;;;212.52;;
55268;SDS011;41131;42.990;21.954;2024-01-07T09:29:51;300.50;;;240.25;;
55268;SDS011;41131;42.990;21.954;2024-01-07T09:32:17;276.63;;;234.02;;
55268;SDS011;41131;42.990;21.954;2024-01-07T09:34:43;227.18;;;194.57;;
55268;SDS011;41131;42.990;21.954;2024-01-07T09:37:09;262.70;;;221.02;;
55268;SDS011;41131;42.990;21.954;2024-01-07T09:39:39;245.68;;;213.63;;
55268;SDS011;41131;42.990;21.954;2024-01-07T09:42:07;214.40;;;184.55;;
55268;SDS011;41131;42.990;21.954;2024-01-07T09:44:37;183.80;;;156.95;;
55268;SDS011;41131;42.990;21.954;2024-01-07T09:47:04;178.85;;;154.63;;
55268;SDS011;41131;42.990;21.954;2024-01-07T09:49:30;177.43;;;152.48;;
55268;SDS011;41131;42.990;21.954;2024-01-07T09:51:58;149.88;;;127.90;;
55268;SDS011;41131;42.990;21.954;2024-01-07T09:54:28;112.65;;;98.45;;
55268;SDS011;41131;42.990;21.954;2024-01-07T09:56:55;94.63;;;81.90;;
55268;SDS011;41131;42.990;21.954;2024-01-07T09:59:23;94.78;;;74.63;;
55268;SDS011;41131;42.990;21.954;2024-01-07T10:01:49;54.50;;;48.42;;
55268;SDS011;41131;42.990;21.954;2024-01-07T10:04:16;51.28;;;41.78;;
55268;SDS011;41131;42.990;21.954;2024-01-07T10:06:42;41.33;;;33.20;;
55268;SDS011;41131;42.990;21.954;2024-01-07T10:09:08;36.42;;;30.05;;
55268;SDS011;41131;42.990;21.954;2024-01-07T10:11:34;40.75;;;34.95;;
55268;SDS011;41131;42.990;21.954;2024-01-07T10:14:00;46.28;;;35.50;;
55268;SDS011;41131;42.990;21.954;2024-01-07T10:16:27;57.55;;;42.88;;
55268;SDS011;41131;42.990;21.954;2024-01-07T10:18:53;64.85;;;48.05;;
55268;SDS011;41131;42.990;21.954;2024-01-07T10:21:19;48.70;;;37.65;;
55268;SDS011;41131;42.990;21.954;2024-01-07T10:23:46;48.67;;;35.42;;
55268;SDS011;41131;42.990;21.954;2024-01-07T10:26:12;40.22;;;31.27;;
55268;SDS011;41131;42.990;21.954;2024-01-07T10:28:38;41.17;;;29.83;;
55268;SDS011;41131;42.990;21.954;2024-01-07T10:31:05;40.85;;;27.85;;
55268;SDS011;41131;42.990;21.954;2024-01-07T10:33:31;28.60;;;21.65;;
55268;SDS011;41131;42.990;21.954;2024-01-07T10:36:01;25.60;;;18.95;;
55268;SDS011;41131;42.990;21.954;2024-01-07T10:40:58;41.88;;;24.65;;
55268;SDS011;41131;42.990;21.954;2024-01-07T10:43:26;33.33;;;25.15;;
55268;SDS011;41131;42.990;21.954;2024-01-07T10:45:54;46.35;;;29.75;;
55268;SDS011;41131;42.990;21.954;2024-01-07T10:48:20;32.30;;;25.02;;
55268;SDS011;41131;42.990;21.954;2024-01-07T10:50:47;55.60;;;28.13;;
55268;SDS011;41131;42.990;21.954;2024-01-07T10:53:17;42.08;;;22.63;;
55268;SDS011;41131;42.990;21.954;2024-01-07T10:55:45;50.95;;;26.27;;
55268;SDS011;41131;42.990;21.954;2024-01-07T10:58:14;28.98;;;22.02;;
55268;SDS011;41131;42.990;21.954;2024-01-07T11:00:41;33.67;;;19.88;;
55268;SDS011;41131;42.990;21.954;2024-01-07T11:03:18;18.85;;;14.55;;
55268;SDS011;41131;42.990;21.954;2024-01-07T11:05:56;24.35;;;15.07;;
55268;SDS011;41131;42.990;21.954;2024-01-07T11:08:25;48.00;;;20.48;;
55268;SDS011;41131;42.990;21.954;2024-01-07T11:10:57;37.38;;;17.88;;
55268;SDS011;41131;42.990;21.954;2024-01-07T11:13:34;31.90;;;20.92;;
55268;SDS011;41131;42.990;21.954;2024-01-07T11:16:03;29.77;;;19.65;;
55268;SDS011;41131;42.990;21.954;2024-01-07T11:18:30;26.00;;;16.10;;
55268;SDS011;41131;42.990;21.954;2024-01-07T11:21:01;42.13;;;27.20;;
55268;SDS011;41131;42.990;21.954;2024-01-07T11:23:31;27.55;;;20.55;;
55268;SDS011;41131;42.990;21.954;2024-01-07T11:26:05;34.92;;;14.05;;
55268;SDS011;41131;42.990;21.954;2024-01-07T11:31:09;29.08;;;13.05;;
55268;SDS011;41131;42.990;21.954;2024-01-07T11:33:39;41.55;;;24.50;;
55268;SDS011;41131;42.990;21.954;2024-01-07T11:36:05;25.63;;;8.38;;
55268;SDS011;41131;42.990;21.954;2024-01-07T11:38:31;83.82;;;48.63;;
55268;SDS011;41131;42.990;21.954;2024-01-07T11:40:57;49.90;;;33.88;;
55268;SDS011;41131;42.990;21.954;2024-01-07T11:43:24;32.10;;;13.95;;
55268;SDS011;41131;42.990;21.954;2024-01-07T11:45:51;23.95;;;13.77;;
55268;SDS011;41131;42.990;21.954;2024-01-07T11:48:20;67.60;;;32.42;;
55268;SDS011;41131;42.990;21.954;2024-01-07T11:50:46;25.00;;;13.32;;
55268;SDS011;41131;42.990;21.954;2024-01-07T11:53:12;24.45;;;12.85;;
55268;SDS011;41131;42.990;21.954;2024-01-07T11:55:38;37.22;;;19.17;;
55268;SDS011;41131;42.990;21.954;2024-01-07T11:58:04;70.10;;;18.08;;
55268;SDS011;41131;42.990;21.954;2024-01-07T12:00:31;82.93;;;33.10;;
55268;SDS011;41131;42.990;21.954;2024-01-07T12:02:58;92.22;;;30.88;;
55268;SDS011;41131;42.990;21.954;2024-01-07T12:05:25;78.55;;;38.05;;
55268;SDS011;41131;42.990;21.954;2024-01-07T12:07:51;66.28;;;25.15;;
55268;SDS011;41131;42.990;21.954;2024-01-07T12:10:17;113.35;;;60.60;;
55268;SDS011;41131;42.990;21.954;2024-01-07T12:12:43;36.60;;;19.33;;
55268;SDS011;41131;42.990;21.954;2024-01-07T12:15:09;43.95;;;20.65;;
55268;SDS011;41131;42.990;21.954;2024-01-07T12:17:39;28.80;;;14.88;;
55268;SDS011;41131;42.990;21.954;2024-01-07T12:20:05;21.35;;;11.35;;
55268;SDS011;41131;42.990;21.954;2024-01-07T12:22:32;58.90;;;18.65;;
55268;SDS011;41131;42.990;21.954;2024-01-07T12:25:02;40.20;;;16.85;;
55268;SDS011;41131;42.990;21.954;2024-01-07T12:27:28;68.00;;;31.15;;
55268;SDS011;41131;42.990;21.954;2024-01-07T12:29:58;42.88;;;20.55;;
55268;SDS011;41131;42.990;21.954;2024-01-07T12:32:30;50.90;;;35.15;;
55268;SDS011;41131;42.990;21.954;2024-01-07T12:37:25;81.65;;;56.30;;
55268;SDS011;41131;42.990;21.954;2024-01-07T12:39:52;54.33;;;38.17;;
55268;SDS011;41131;42.990;21.954;2024-01-07T12:42:18;49.28;;;36.13;;
55268;SDS011;41131;42.990;21.954;2024-01-07T12:44:45;57.85;;;45.92;;
55268;SDS011;41131;42.990;21.954;2024-01-07T12:47:11;26.27;;;14.02;;
55268;SDS011;41131;42.990;21.954;2024-01-07T12:49:37;62.25;;;41.72;;
55268;SDS011;41131;42.990;21.954;2024-01-07T12:52:03;46.80;;;34.75;;
55268;SDS011;41131;42.990;21.954;2024-01-07T12:54:30;62.55;;;39.55;;
55268;SDS011;41131;42.990;21.954;2024-01-07T12:56:56;78.47;;;38.58;;
55268;SDS011;41131;42.990;21.954;2024-01-07T12:59:22;95.45;;;72.60;;
55268;SDS011;41131;42.990;21.954;2024-01-07T13:01:48;45.70;;;32.65;;
55268;SDS011;41131;42.990;21.954;2024-01-07T13:04:16;42.95;;;29.05;;
55268;SDS011;41131;42.990;21.954;2024-01-07T13:06:42;27.63;;;21.75;;
55268;SDS011;41131;42.990;21.954;2024-01-07T13:09:08;40.00;;;30.20;;
55268;SDS011;41131;42.990;21.954;2024-01-07T13:11:34;43.67;;;24.92;;
55268;SDS011;41131;42.990;21.954;2024-01-07T13:14:00;32.47;;;22.45;;
55268;SDS011;41131;42.990;21.954;2024-01-07T13:16:27;29.55;;;19.63;;
55268;SDS011;41131;42.990;21.954;2024-01-07T13:18:53;23.42;;;16.13;;
55268;SDS011;41131;42.990;21.954;2024-01-07T13:21:20;41.40;;;23.38;;
55268;SDS011;41131;42.990;21.954;2024-01-07T13:23:46;28.05;;;20.58;;
55268;SDS011;41131;42.990;21.954;2024-01-07T13:26:16;37.35;;;23.73;;
55268;SDS011;41131;42.990;21.954;2024-01-07T13:28:42;19.23;;;12.68;;
55268;SDS011;41131;42.990;21.954;2024-01-07T13:31:08;23.63;;;11.25;;
55268;SDS011;41131;42.990;21.954;2024-01-07T13:33:37;50.90;;;23.73;;
55268;SDS011;41131;42.990;21.954;2024-01-07T13:36:03;35.30;;;20.67;;
55268;SDS011;41131;42.990;21.954;2024-01-07T13:38:35;59.67;;;33.75;;
55268;SDS011;41131;42.990;21.954;2024-01-07T13:41:03;83.82;;;44.83;;
55268;SDS011;41131;42.990;21.954;2024-01-07T13:43:29;70.35;;;42.35;;
55268;SDS011;41131;42.990;21.954;2024-01-07T13:45:55;142.35;;;68.25;;
55268;SDS011;41131;42.990;21.954;2024-01-07T13:48:21;38.50;;;24.88;;
55268;SDS011;41131;42.990;21.954;2024-01-07T13:50:47;49.65;;;30.05;;
55268;SDS011;41131;42.990;21.954;2024-01-07T13:53:14;58.80;;;33.25;;
55268;SDS011;41131;42.990;21.954;2024-01-07T13:55:40;73.55;;;37.17;;
55268;SDS011;41131;42.990;21.954;2024-01-07T13:58:06;103.93;;;58.05;;
55268;SDS011;41131;42.990;21.954;2024-01-07T14:00:32;68.68;;;35.45;;
55268;SDS011;41131;42.990;21.954;2024-01-07T14:02:57;145.80;;;87.43;;
55268;SDS011;41131;42.990;21.954;2024-01-07T14:05:23;154.90;;;88.43;;